createdAt,value
2016-08-08T00:00:23.176Z,91.2
2016-08-08T00:01:22.452Z,90.73
2016-08-08T00:02:22.432Z,90.34
2016-08-08T00:03:22.440Z,90.44
2016-08-08T00:04:22.428Z,90.63
2016-08-08T00:05:22.465Z,90.34
2016-08-08T00:06:22.411Z,90.25
2016-08-08T00:07:22.413Z,90.06
2016-08-08T00:08:22.403Z,89.77
2016-08-08T00:09:22.416Z,90.16
2016-08-08T00:10:22.404Z,89.96
2016-08-08T00:11:22.397Z,90.44
2016-08-08T00:12:22.397Z,90.25
2016-08-08T00:13:22.380Z,89.77
2016-08-08T00:14:22.380Z,90.06
2016-08-08T00:15:22.379Z,89.87
2016-08-08T00:16:22.382Z,89.48
2016-08-08T00:17:22.364Z,90.34
2016-08-08T00:18:22.373Z,90.44
2016-08-08T00:19:22.383Z,90.06
2016-08-08T00:20:22.355Z,90.06
2016-08-08T00:21:22.350Z,89.96
2016-08-08T00:22:22.359Z,89.96
2016-08-08T00:23:22.359Z,89.29
2016-08-08T00:24:22.339Z,89.39
2016-08-08T00:25:22.350Z,89.2
2016-08-08T00:26:22.337Z,89.29
2016-08-08T00:27:22.336Z,89.77
2016-08-08T00:28:22.329Z,90.53
2016-08-08T00:29:22.315Z,89.39
2016-08-08T00:30:22.323Z,89.48
2016-08-08T00:31:22.298Z,90.06
2016-08-08T00:32:22.304Z,90.16
2016-08-08T00:33:22.307Z,90.44
2016-08-08T00:34:22.502Z,89.58
2016-08-08T00:35:22.321Z,89.2
2016-08-08T00:36:22.307Z,89.77
2016-08-08T00:37:22.278Z,89.39
2016-08-08T00:38:22.273Z,89.58
2016-08-08T00:39:22.286Z,89.87
2016-08-08T00:40:22.276Z,90.25
2016-08-08T00:41:22.271Z,90.44
2016-08-08T00:42:22.266Z,90.34
2016-08-08T00:43:22.267Z,90.25
2016-08-08T00:44:22.261Z,89.87
2016-08-08T00:45:22.265Z,89.87
2016-08-08T00:46:22.240Z,89.87
2016-08-08T00:47:22.257Z,90.16
2016-08-08T00:48:22.246Z,90.16
2016-08-08T00:49:22.248Z,90.06
2016-08-08T00:50:22.239Z,89.96
2016-08-08T00:51:22.224Z,89.39
2016-08-08T00:52:22.227Z,89.29
2016-08-08T00:53:22.220Z,89.1
2016-08-08T00:54:22.223Z,89.2
2016-08-08T00:55:22.231Z,89.58
2016-08-08T00:56:22.199Z,89.87
2016-08-08T00:57:22.211Z,89.67
2016-08-08T00:58:22.193Z,89.96
2016-08-08T00:59:22.201Z,90.16
2016-08-08T01:00:22.194Z,90.06
2016-08-08T01:01:22.197Z,90.25
2016-08-08T01:02:22.186Z,90.25
2016-08-08T01:03:22.190Z,90.53
2016-08-08T01:04:22.196Z,90.63
2016-08-08T01:05:22.165Z,91.2
2016-08-08T01:06:22.168Z,91.11
2016-08-08T01:07:22.173Z,90.88
2016-08-08T01:08:22.155Z,91.11
2016-08-08T01:09:22.155Z,91.06
2016-08-08T01:10:22.142Z,91.25
2016-08-08T01:11:22.965Z,91.54
2016-08-08T01:12:22.162Z,91.11
2016-08-08T01:13:22.128Z,91.59
2016-08-08T01:14:22.130Z,91.78
2016-08-08T01:15:22.137Z,91.78
2016-08-08T01:16:22.140Z,92.16
2016-08-08T01:17:22.822Z,91.59
2016-08-08T01:18:22.126Z,92.25
2016-08-08T01:19:22.106Z,92.21
2016-08-08T01:20:22.117Z,91.74
2016-08-08T01:21:22.128Z,91.35
2016-08-08T01:22:22.128Z,91.54
2016-08-08T01:23:22.132Z,91.45
2016-08-08T01:24:22.151Z,91.68
2016-08-08T01:25:22.083Z,91.93
2016-08-08T01:26:22.089Z,92.07
2016-08-08T01:27:22.073Z,91.39
2016-08-08T01:28:22.087Z,90.53
2016-08-08T01:29:22.081Z,90.97
2016-08-08T01:30:22.090Z,91.39
2016-08-08T01:31:22.103Z,91.59
2016-08-08T01:32:22.099Z,91.64
2016-08-08T01:33:22.101Z,91.16
2016-08-08T01:34:22.819Z,91.02
2016-08-08T01:35:22.135Z,91.02
2016-08-08T01:36:22.121Z,91.06
2016-08-08T01:37:22.075Z,90.82
2016-08-08T01:38:22.033Z,91.49
2016-08-08T01:39:22.041Z,91.49
2016-08-08T01:40:22.050Z,91.49
2016-08-08T01:41:22.064Z,91.49
2016-08-08T01:42:22.073Z,91.39
2016-08-08T01:43:22.064Z,91.3
2016-08-08T01:44:22.074Z,91.2
2016-08-08T01:45:22.085Z,91.35
2016-08-08T01:46:22.042Z,91.39
2016-08-08T01:47:22.046Z,91.68
2016-08-08T01:48:22.076Z,91.39
2016-08-08T01:49:22.051Z,91.25
2016-08-08T01:50:22.022Z,91.74
2016-08-08T01:51:22.032Z,91.93
2016-08-08T01:52:22.036Z,92.3
2016-08-08T01:53:22.040Z,91.45
2016-08-08T01:54:22.048Z,91.16
2016-08-08T01:55:21.995Z,91.74
2016-08-08T01:56:25.041Z,91.3
2016-08-08T01:57:22.012Z,91.97
2016-08-08T01:58:22.027Z,91.59
2016-08-08T01:59:22.026Z,91.74
2016-08-08T02:00:22.030Z,91.49
2016-08-08T02:01:22.050Z,91.49
2016-08-08T02:02:22.011Z,91.02
2016-08-08T02:03:22.015Z,90.2
2016-08-08T02:04:21.962Z,90.16
2016-08-08T02:05:21.976Z,90.25
2016-08-08T02:06:21.975Z,90.63
2016-08-08T02:07:21.986Z,90.06
2016-08-08T02:08:22.004Z,90.16
2016-08-08T02:09:22.011Z,89.48
2016-08-08T02:10:22.002Z,89.67
2016-08-08T02:11:22.029Z,89.48
2016-08-08T02:12:21.969Z,88.15
2016-08-08T02:13:22.031Z,88.53
2016-08-08T02:14:22.052Z,88.34
2016-08-08T02:15:21.935Z,88.34
2016-08-08T02:16:21.953Z,88.24
2016-08-08T02:17:21.959Z,88.43
2016-08-08T02:18:21.970Z,87.38
2016-08-08T02:19:21.977Z,87.38
2016-08-08T02:20:21.985Z,87.43
2016-08-08T02:21:21.996Z,87.33
2016-08-08T02:22:22.004Z,86.8
2016-08-08T02:23:22.001Z,86.85
2016-08-08T02:24:22.012Z,86.66
2016-08-08T02:25:22.016Z,85.99
2016-08-08T02:26:22.018Z,86.37
2016-08-08T02:27:21.995Z,86.28
2016-08-08T02:28:22.054Z,86.94
2016-08-08T02:29:22.009Z,86.37
2016-08-08T02:30:22.029Z,85.89
2016-08-08T02:31:21.975Z,86.47
2016-08-08T02:32:21.974Z,86.85
2016-08-08T02:33:21.999Z,86.37
2016-08-08T02:34:22.001Z,86.76
2016-08-08T02:35:21.986Z,86.66
2016-08-08T02:36:21.999Z,87.33
2016-08-08T02:37:22.539Z,87.23
2016-08-08T02:38:22.013Z,86.85
2016-08-08T02:39:22.027Z,87.38
2016-08-08T02:40:21.982Z,87.23
2016-08-08T02:41:22.000Z,87.38
2016-08-08T02:42:21.999Z,87.33
2016-08-08T02:43:22.011Z,87.19
2016-08-08T02:44:22.021Z,87.19
2016-08-08T02:45:22.008Z,88.05
2016-08-08T02:46:22.039Z,88.24
2016-08-08T02:47:22.031Z,88.43
2016-08-08T02:48:22.044Z,88.53
2016-08-08T02:49:22.045Z,88.05
2016-08-08T02:50:22.073Z,88.24
2016-08-08T02:51:22.052Z,88.05
2016-08-08T02:52:21.967Z,88.05
2016-08-08T02:53:21.989Z,88.24
2016-08-08T02:54:22.000Z,88.72
2016-08-08T02:55:21.992Z,88.62
2016-08-08T02:56:21.995Z,88.91
2016-08-08T02:58:22.012Z,88.91
2016-08-08T02:59:22.021Z,88.72
2016-08-08T03:00:22.047Z,87.66
2016-08-08T03:01:22.030Z,87
2016-08-08T03:02:22.042Z,86.8
2016-08-08T03:03:22.051Z,87.09
2016-08-08T03:04:21.992Z,87
2016-08-08T03:05:22.031Z,87.29
2016-08-08T03:06:22.013Z,87.48
2016-08-08T03:07:22.015Z,88.15
2016-08-08T03:08:22.039Z,88.34
2016-08-08T03:09:22.037Z,87.57
2016-08-08T03:10:22.019Z,88.05
2016-08-08T03:11:22.048Z,88.24
2016-08-08T03:13:22.033Z,88.53
2016-08-08T03:14:22.057Z,88.53
2016-08-08T03:15:22.041Z,88.91
2016-08-08T03:16:22.048Z,89.48
2016-08-08T03:17:22.077Z,89.01
2016-08-08T03:18:22.073Z,89.06
2016-08-08T03:19:22.062Z,89.58
2016-08-08T03:20:22.069Z,89.82
2016-08-08T03:21:22.076Z,89.58
2016-08-08T03:22:22.061Z,89.34
2016-08-08T03:23:22.110Z,89.58
2016-08-08T03:24:22.086Z,89.39
2016-08-08T03:25:22.088Z,89.44
2016-08-08T03:26:22.116Z,89.1
2016-08-08T03:28:22.096Z,89.67
2016-08-08T03:29:22.114Z,89.29
2016-08-08T03:30:22.108Z,89.29
2016-08-08T03:31:22.087Z,88.96
2016-08-08T03:32:22.125Z,88.58
2016-08-08T03:33:22.119Z,88.72
2016-08-08T03:34:22.123Z,88.43
2016-08-08T03:35:22.134Z,88.81
2016-08-08T03:36:22.136Z,88.81
2016-08-08T03:37:22.133Z,89.39
2016-08-08T03:38:22.174Z,89.48
2016-08-08T03:39:22.156Z,89.58
2016-08-08T03:40:22.870Z,89.39
2016-08-08T03:41:22.173Z,89.77
2016-08-08T03:43:22.217Z,89.67
2016-08-08T03:44:22.210Z,88.96
2016-08-08T03:45:22.200Z,89.34
2016-08-08T03:46:22.203Z,89.2
2016-08-08T03:47:22.212Z,89.29
2016-08-08T03:48:22.222Z,89.1
2016-08-08T03:49:22.209Z,88.48
2016-08-08T03:50:22.225Z,88.24
2016-08-08T03:51:22.230Z,88.53
2016-08-08T03:52:22.213Z,88.91
2016-08-08T03:53:22.247Z,88.62
2016-08-08T03:54:22.252Z,88.72
2016-08-08T03:55:22.391Z,88.34
2016-08-08T03:56:22.266Z,88.24
2016-08-08T03:58:23.517Z,88.05
2016-08-08T03:59:22.284Z,88.24
2016-08-08T04:00:22.290Z,87.86
2016-08-08T04:01:22.264Z,87.86
2016-08-08T04:02:22.287Z,88.53
2016-08-08T04:03:22.275Z,87.86
2016-08-08T04:04:22.268Z,87.76
2016-08-08T04:05:22.282Z,87.19
2016-08-08T04:06:22.287Z,86.9
2016-08-08T04:07:22.264Z,87.19
2016-08-08T04:08:22.285Z,87.76
2016-08-08T04:09:22.275Z,87.76
2016-08-08T04:10:22.274Z,87.66
2016-08-08T04:11:22.285Z,88.43
2016-08-08T04:13:22.264Z,88.72
2016-08-08T04:14:22.296Z,89.48
2016-08-08T04:15:22.286Z,89.2
2016-08-08T04:16:22.340Z,89.1
2016-08-08T04:17:22.333Z,89.48
2016-08-08T04:18:22.308Z,89.87
2016-08-08T04:19:22.310Z,90.16
2016-08-08T04:20:22.364Z,90.34
2016-08-08T04:21:22.345Z,90.53
2016-08-08T04:22:22.340Z,90.44
2016-08-08T04:23:22.354Z,90.16
2016-08-08T04:24:22.344Z,90.25
2016-08-08T04:25:22.342Z,90.53
2016-08-08T04:26:22.402Z,89.96
2016-08-08T04:27:22.396Z,89.96
2016-08-08T04:28:22.381Z,90.3
2016-08-08T04:29:23.093Z,90.59
2016-08-08T04:30:22.389Z,91.2
2016-08-08T04:31:22.389Z,90.63
2016-08-08T04:32:23.117Z,90.44
2016-08-08T04:33:22.390Z,90.63
2016-08-08T04:34:22.398Z,91.39
2016-08-08T04:35:22.444Z,92.25
2016-08-08T04:36:22.429Z,91.97
2016-08-08T04:37:22.432Z,91.88
2016-08-08T04:38:22.461Z,92.07
2016-08-08T04:39:22.438Z,92.16
2016-08-08T04:40:22.449Z,92.64
2016-08-08T04:41:22.452Z,92.45
2016-08-08T04:42:22.462Z,92.25
2016-08-08T04:43:22.438Z,91.88
2016-08-08T04:44:22.445Z,92.64
2016-08-08T04:45:22.424Z,92.45
2016-08-08T04:46:22.445Z,91.92
2016-08-08T04:47:22.414Z,92.25
2016-08-08T04:48:22.423Z,91.92
2016-08-08T04:49:22.405Z,91.92
2016-08-08T04:50:22.413Z,91.83
2016-08-08T04:51:22.399Z,91.73
2016-08-08T04:52:22.396Z,91.73
2016-08-08T04:53:22.390Z,92.11
2016-08-08T04:54:22.387Z,92.02
2016-08-08T04:55:22.381Z,92.3
2016-08-08T04:56:22.367Z,92.3
2016-08-08T04:57:22.389Z,92.4
2016-08-08T04:58:22.367Z,92.02
2016-08-08T04:59:22.372Z,91.83
2016-08-08T05:00:22.363Z,90.3
2016-08-08T05:01:22.355Z,91.06
2016-08-08T05:02:22.352Z,90.96
2016-08-08T05:03:22.357Z,91.53
2016-08-08T05:04:22.336Z,91.06
2016-08-08T05:05:22.337Z,90.91
2016-08-08T05:06:22.339Z,91.25
2016-08-08T05:07:22.333Z,91.3
2016-08-08T05:08:22.330Z,91.11
2016-08-08T05:09:22.324Z,90.44
2016-08-08T05:10:22.336Z,89.48
2016-08-08T05:11:22.336Z,89.19
2016-08-08T05:12:22.319Z,89.09
2016-08-08T05:13:22.315Z,89.23
2016-08-08T05:14:22.312Z,89.52
2016-08-08T05:15:22.304Z,89.23
2016-08-08T05:16:22.307Z,89.43
2016-08-08T05:17:22.299Z,87.8
2016-08-08T05:18:22.288Z,88.76
2016-08-08T05:19:22.291Z,88.66
2016-08-08T05:20:22.292Z,88.66
2016-08-08T05:21:22.286Z,89.14
2016-08-08T05:22:22.274Z,89.04
2016-08-08T05:23:22.282Z,88.56
2016-08-08T05:24:22.267Z,87.9
2016-08-08T05:25:22.270Z,88.28
2016-08-08T05:26:22.261Z,87.99
2016-08-08T05:27:22.264Z,87.8
2016-08-08T05:28:22.257Z,87.7
2016-08-08T05:29:22.249Z,88.37
2016-08-08T05:30:22.296Z,87.32
2016-08-08T05:31:22.243Z,86.84
2016-08-08T05:32:22.238Z,87.08
2016-08-08T05:33:22.243Z,86.84
2016-08-08T05:34:22.233Z,86.98
2016-08-08T05:35:22.237Z,87.08
2016-08-08T05:36:22.233Z,86.46
2016-08-08T05:37:22.222Z,86.12
2016-08-08T05:38:22.229Z,85.98
2016-08-08T05:39:22.221Z,86.21
2016-08-08T05:40:22.215Z,85.6
2016-08-08T05:41:22.305Z,85.16
2016-08-08T05:42:22.210Z,85.16
2016-08-08T05:43:22.199Z,84.58
2016-08-08T05:44:22.195Z,83.15
2016-08-08T05:45:22.220Z,83.44
2016-08-08T05:46:22.198Z,82.38
2016-08-08T05:47:22.190Z,82.57
2016-08-08T05:48:22.190Z,82.38
2016-08-08T05:49:22.189Z,82
2016-08-08T05:50:22.182Z,81.37
2016-08-08T05:51:22.189Z,81.27
2016-08-08T05:52:22.190Z,80.7
2016-08-08T05:53:22.187Z,80.6
2016-08-08T05:54:22.177Z,80.6
2016-08-08T05:55:22.177Z,80.32
2016-08-08T05:56:22.170Z,78.88
2016-08-08T05:57:22.181Z,79.26
2016-08-08T05:58:22.170Z,79.16
2016-08-08T05:59:22.153Z,78.3
2016-08-08T06:00:22.153Z,78.3
2016-08-08T06:01:22.157Z,78.15
2016-08-08T06:02:22.160Z,77.86
2016-08-08T06:03:22.153Z,77.73
2016-08-08T06:04:22.141Z,77.29
2016-08-08T06:05:22.151Z,76.71
2016-08-08T06:06:22.840Z,76.9
2016-08-08T06:07:22.133Z,77
2016-08-08T06:08:22.138Z,76.52
2016-08-08T06:09:22.127Z,76.14
2016-08-08T06:10:22.125Z,76.81
2016-08-08T06:11:22.140Z,77.09
2016-08-08T06:12:22.129Z,77.09
2016-08-08T06:13:22.126Z,76.81
2016-08-08T06:14:22.119Z,77.38
2016-08-08T06:15:22.118Z,77
2016-08-08T06:16:22.116Z,77.09
2016-08-08T06:17:22.117Z,76.52
2016-08-08T06:18:22.099Z,77.19
2016-08-08T06:19:22.098Z,76.81
2016-08-08T06:20:22.101Z,76.42
2016-08-08T06:21:22.105Z,76.71
2016-08-08T06:22:22.094Z,76.9
2016-08-08T06:23:22.088Z,76.71
2016-08-08T06:24:22.090Z,76.9
2016-08-08T06:25:22.094Z,76.71
2016-08-08T06:26:22.094Z,76.62
2016-08-08T06:27:22.103Z,76.81
2016-08-08T06:28:22.092Z,76.52
2016-08-08T06:29:22.078Z,76.71
2016-08-08T06:30:22.077Z,76.81
2016-08-08T06:31:22.088Z,76.32
2016-08-08T06:32:22.075Z,75.95
2016-08-08T06:33:22.068Z,75.75
2016-08-08T06:34:22.069Z,75.21
2016-08-08T06:35:22.068Z,75.4
2016-08-08T06:36:22.094Z,75.02
2016-08-08T06:37:22.060Z,75.31
2016-08-08T06:38:22.058Z,75.02
2016-08-08T06:39:22.080Z,75.79
2016-08-08T06:40:22.055Z,76.27
2016-08-08T06:41:22.052Z,75.98
2016-08-08T06:42:22.051Z,75.79
2016-08-08T06:43:22.061Z,75.02
2016-08-08T06:44:22.045Z,75.5
2016-08-08T06:45:22.048Z,75.7
2016-08-08T06:46:22.052Z,75.21
2016-08-08T06:47:22.050Z,74.77
2016-08-08T06:48:22.045Z,74.35
2016-08-08T06:49:22.032Z,73.77
2016-08-08T06:50:22.042Z,74.01
2016-08-08T06:51:22.043Z,73.43
2016-08-08T06:52:22.023Z,70.84
2016-08-08T06:53:22.029Z,71.25
2016-08-08T06:54:22.033Z,72.02
2016-08-08T06:55:22.036Z,71.64
2016-08-08T06:56:22.735Z,72.12
2016-08-08T06:57:22.075Z,71.73
2016-08-08T06:58:22.036Z,72.16
2016-08-08T06:59:22.028Z,71.67
2016-08-08T07:00:22.036Z,70.07
2016-08-08T07:01:22.017Z,68.73
2016-08-08T07:02:22.011Z,66.94
2016-08-08T07:03:22.014Z,66.2
2016-08-08T07:04:22.006Z,66.24
2016-08-08T07:05:22.085Z,65.01
2016-08-08T07:06:22.027Z,60.71
2016-08-08T07:07:22.033Z,58.48
2016-08-08T07:08:22.011Z,58.7
2016-08-08T07:09:22.003Z,53.74
2016-08-08T07:10:22.013Z,54.17
2016-08-08T07:11:22.016Z,47.74
2016-08-08T07:12:22.021Z,49.07
2016-08-08T07:13:22.032Z,48.83
2016-08-08T07:14:22.018Z,47.81
2016-08-08T07:15:22.020Z,41.05
2016-08-08T07:16:22.025Z,40.19
2016-08-08T07:17:22.033Z,36.8
2016-08-08T07:18:22.033Z,38.98
2016-08-08T07:19:22.025Z,34.61
2016-08-08T07:20:22.046Z,35.49
2016-08-08T07:21:22.046Z,35.61
2016-08-08T07:22:22.035Z,35.14
2016-08-08T07:23:22.045Z,34.75
2016-08-08T07:24:22.051Z,33.89
2016-08-08T07:25:22.055Z,31.74
2016-08-08T07:26:22.082Z,34.09
2016-08-08T07:27:22.079Z,31.87
2016-08-08T07:28:22.097Z,32.84
2016-08-08T07:29:22.075Z,32.07
2016-08-08T07:30:22.153Z,32.16
2016-08-08T07:31:22.093Z,29.83
2016-08-08T07:32:22.100Z,31.59
2016-08-08T07:33:22.120Z,29.66
2016-08-08T07:34:22.117Z,28.88
2016-08-08T07:35:22.124Z,27.81
2016-08-08T07:36:22.129Z,28.43
2016-08-08T07:37:22.142Z,28.43
2016-08-08T07:38:22.138Z,28.13
2016-08-08T07:39:22.157Z,27.94
2016-08-08T07:40:22.159Z,28.13
2016-08-08T07:41:22.445Z,26.07
2016-08-08T07:42:22.182Z,26.17
2016-08-08T07:44:22.398Z,24.99
2016-08-08T07:45:22.214Z,26.06
2016-08-08T07:46:22.203Z,25.96
2016-08-08T07:47:22.222Z,27.62
2016-08-08T07:48:22.225Z,25.46
2016-08-08T07:49:22.238Z,27.12
2016-08-08T07:50:22.245Z,28.01
2016-08-08T07:51:22.255Z,27.91
2016-08-08T07:52:22.256Z,25.67
2016-08-08T07:53:22.272Z,28.2
2016-08-08T07:54:22.272Z,27.03
2016-08-08T07:55:22.286Z,28.4
2016-08-08T07:56:22.301Z,30.67
2016-08-08T07:57:22.319Z,27.44
2016-08-08T07:58:22.356Z,26.95
2016-08-08T07:59:22.311Z,25.09
2016-08-08T08:00:22.371Z,25.56
2016-08-08T08:01:22.325Z,28.69
2016-08-08T08:02:22.336Z,28.58
2016-08-08T08:03:22.345Z,27.21
2016-08-08T08:04:22.369Z,29.55
2016-08-08T08:05:22.359Z,27.88
2016-08-08T08:06:23.174Z,29.52
2016-08-08T08:07:22.369Z,29.22
2016-08-08T08:08:22.382Z,29.02
2016-08-08T08:09:22.383Z,28.81
2016-08-08T08:10:22.386Z,31.52
2016-08-08T08:11:22.389Z,32.68
2016-08-08T08:12:22.401Z,32.37
2016-08-08T08:14:22.421Z,37.89
2016-08-08T08:15:22.424Z,38.65
2016-08-08T08:16:22.417Z,39.12
2016-08-08T08:17:22.425Z,37.24
2016-08-08T08:18:22.435Z,37.51
2016-08-08T08:19:22.446Z,38.95
2016-08-08T08:20:22.444Z,43.78
2016-08-08T08:21:22.451Z,43.47
2016-08-08T08:22:22.472Z,43.35
2016-08-08T08:23:22.456Z,46.55
2016-08-08T08:24:22.462Z,47.91
2016-08-08T08:25:22.468Z,46.62
2016-08-08T08:26:22.481Z,46.33
2016-08-08T08:27:22.473Z,45.85
2016-08-08T08:29:22.481Z,47.19
2016-08-08T08:30:22.502Z,46.31
2016-08-08T08:31:22.493Z,44.47
2016-08-08T08:32:22.508Z,46.99
2016-08-08T08:33:22.516Z,47.67
2016-08-08T08:34:22.519Z,45.42
2016-08-08T08:35:22.504Z,45.81
2016-08-08T08:36:22.508Z,45.71
2016-08-08T08:37:22.532Z,48.13
2016-08-08T08:38:22.525Z,46.17
2016-08-08T08:39:22.515Z,48.37
2016-08-08T08:40:22.523Z,48.18
2016-08-08T08:41:22.523Z,49.73
2016-08-08T08:42:22.531Z,49.12
2016-08-08T08:43:22.534Z,50.18
2016-08-08T08:44:22.535Z,50.28
2016-08-08T08:45:22.544Z,50.31
2016-08-08T08:46:22.550Z,52.63
2016-08-08T08:47:22.552Z,53.02
2016-08-08T08:48:22.547Z,52.63
2016-08-08T08:49:22.556Z,50.12
2016-08-08T08:50:22.569Z,49.92
2016-08-08T08:51:22.558Z,50.76
2016-08-08T08:52:22.568Z,51.44
2016-08-08T08:53:22.559Z,51.93
2016-08-08T08:54:22.575Z,52.39
2016-08-08T08:55:22.574Z,51.51
2016-08-08T08:56:22.583Z,51.51
2016-08-08T08:57:22.603Z,50.81
2016-08-08T08:59:22.601Z,53.69
2016-08-08T09:00:22.582Z,52.33
2016-08-08T09:01:22.589Z,54.46
2016-08-08T09:02:22.588Z,53.11
2016-08-08T09:03:22.619Z,54.36
2016-08-08T09:04:22.602Z,52.04
2016-08-08T09:05:22.602Z,54.27
2016-08-08T09:06:22.602Z,54.62
2016-08-08T09:07:22.608Z,54.72
2016-08-08T09:08:22.606Z,55.01
2016-08-08T09:09:22.609Z,55.3
2016-08-08T09:10:22.618Z,56.43
2016-08-08T09:11:22.610Z,57.2
2016-08-08T09:12:22.634Z,58.84
2016-08-08T09:14:22.621Z,57.97
2016-08-08T09:15:22.628Z,58.94
2016-08-08T09:16:22.633Z,60.86
2016-08-08T09:17:22.660Z,58.17
2016-08-08T09:18:22.632Z,59.03
2016-08-08T09:19:22.636Z,58.19
2016-08-08T09:20:22.633Z,57.42
2016-08-08T09:21:22.631Z,58.77
2016-08-08T09:22:22.658Z,55.33
2016-08-08T09:23:22.653Z,56.61
2016-08-08T09:24:22.656Z,53.13
2016-08-08T09:25:22.645Z,54.32
2016-08-08T09:26:22.644Z,54.03
2016-08-08T09:27:22.649Z,51.71
2016-08-08T09:29:22.652Z,54.99
2016-08-08T09:30:22.699Z,54.8
2016-08-08T09:31:22.645Z,55.67
2016-08-08T09:32:22.662Z,51.71
2016-08-08T09:33:22.670Z,52.55
2016-08-08T09:34:22.665Z,55.55
2016-08-08T09:35:22.672Z,54.58
2016-08-08T09:36:22.664Z,51.49
2016-08-08T09:37:22.676Z,51.59
2016-08-08T09:38:22.710Z,54.29
2016-08-08T09:39:22.669Z,51.39
2016-08-08T09:40:22.690Z,49.85
2016-08-08T09:41:22.672Z,50.43
2016-08-08T09:42:22.686Z,54.87
2016-08-08T09:43:22.675Z,52.94
2016-08-08T09:44:22.682Z,56.03
2016-08-08T09:45:22.695Z,52.55
2016-08-08T09:46:23.387Z,51.87
2016-08-08T09:47:23.401Z,52.07
2016-08-08T09:48:22.687Z,51.68
2016-08-08T09:49:22.692Z,54.29
2016-08-08T09:50:22.687Z,55.45
2016-08-08T09:51:22.698Z,55.65
2016-08-08T09:52:22.704Z,52.17
2016-08-08T09:53:22.706Z,55.87
2016-08-08T09:54:22.704Z,55.16
2016-08-08T09:55:22.702Z,56.35
2016-08-08T09:56:22.704Z,55.57
2016-08-08T09:57:22.724Z,54.71
2016-08-08T09:58:22.723Z,53.64
2016-08-08T09:59:22.710Z,54.61
2016-08-08T10:00:22.712Z,54.51
2016-08-08T10:01:22.716Z,51.64
2016-08-08T10:02:22.728Z,55.51
2016-08-08T10:03:22.721Z,55.02
2016-08-08T10:04:22.721Z,52.51
2016-08-08T10:05:22.724Z,52.8
2016-08-08T10:06:22.727Z,54.44
2016-08-08T10:07:22.735Z,52.31
2016-08-08T10:08:23.447Z,51.83
2016-08-08T10:09:22.750Z,53.77
2016-08-08T10:10:22.769Z,48.83
2016-08-08T10:11:22.746Z,47.96
2016-08-08T10:12:22.739Z,48.74
2016-08-08T10:13:22.736Z,49.51
2016-08-08T10:14:22.741Z,49.87
2016-08-08T10:15:22.742Z,51.15
2016-08-08T10:16:22.770Z,54.53
2016-08-08T10:17:22.776Z,53.67
2016-08-08T10:18:22.756Z,54.53
2016-08-08T10:19:22.749Z,53.96
2016-08-08T10:20:22.759Z,47.67
2016-08-08T10:21:22.769Z,49.7
2016-08-08T10:22:22.773Z,52.41
2016-08-08T10:23:22.759Z,54.44
2016-08-08T10:24:22.776Z,55.6
2016-08-08T10:25:22.780Z,55.51
2016-08-08T10:26:22.772Z,54.73
2016-08-08T10:27:22.764Z,53.67
2016-08-08T10:28:22.783Z,52.12
2016-08-08T10:29:22.796Z,50.89
2016-08-08T10:30:22.829Z,51.66
2016-08-08T10:31:22.783Z,54.66
2016-08-08T10:32:22.796Z,48.69
2016-08-08T10:33:22.799Z,49.92
2016-08-08T10:34:22.783Z,49.85
2016-08-08T10:35:22.802Z,49.95
2016-08-08T10:36:22.792Z,49.75
2016-08-08T10:37:22.811Z,48.97
2016-08-08T10:38:22.855Z,51.2
2016-08-08T10:39:22.813Z,49.27
2016-08-08T10:40:22.806Z,47.81
2016-08-08T10:41:22.805Z,48.47
2016-08-08T10:42:22.810Z,50.62
2016-08-08T10:43:22.832Z,51.5
2016-08-08T10:44:22.813Z,48.69
2016-08-08T10:45:22.820Z,50.24
2016-08-08T10:46:22.827Z,49.05
2016-08-08T10:47:22.825Z,50.12
2016-08-08T10:48:22.827Z,51.56
2016-08-08T10:49:22.836Z,53.69
2016-08-08T10:50:22.838Z,52.92
2016-08-08T10:51:22.854Z,52.92
2016-08-08T10:52:22.844Z,52.08
2016-08-08T10:53:22.854Z,49.17
2016-08-08T10:54:22.862Z,49.75
2016-08-08T10:55:22.853Z,48.88
2016-08-08T10:56:22.851Z,49
2016-08-08T10:57:22.859Z,52.87
2016-08-08T10:58:22.874Z,49.87
2016-08-08T10:59:22.865Z,49.29
2016-08-08T11:00:23.584Z,50.65
2016-08-08T11:01:22.889Z,49.19
2016-08-08T11:02:22.889Z,50.26
2016-08-08T11:03:22.885Z,51.81
2016-08-08T11:04:22.881Z,52.29
2016-08-08T11:05:22.883Z,49.75
2016-08-08T11:06:22.888Z,48.81
2016-08-08T11:07:22.901Z,48.9
2016-08-08T11:08:22.894Z,50.07
2016-08-08T11:09:22.910Z,52
2016-08-08T11:10:22.906Z,48.32
2016-08-08T11:11:22.910Z,49
2016-08-08T11:12:22.911Z,50.16
2016-08-08T11:13:22.910Z,48.83
2016-08-08T11:14:22.955Z,49.22
2016-08-08T11:15:22.917Z,49.8
2016-08-08T11:16:22.921Z,50.67
2016-08-08T11:17:22.927Z,48.64
2016-08-08T11:18:22.933Z,50.09
2016-08-08T11:19:22.931Z,49.61
2016-08-08T11:20:22.942Z,50.07
2016-08-08T11:21:22.946Z,51.04
2016-08-08T11:22:23.659Z,49.56
2016-08-08T11:23:22.941Z,48.81
2016-08-08T11:24:22.950Z,48.79
2016-08-08T11:25:22.953Z,47.33
2016-08-08T11:26:22.962Z,50.24
2016-08-08T11:27:22.969Z,51.78
2016-08-08T11:28:22.975Z,51.2
2016-08-08T11:29:22.970Z,51.5
2016-08-08T11:30:22.976Z,48.49
2016-08-08T11:31:22.986Z,50.43
2016-08-08T11:32:22.995Z,51.98
2016-08-08T11:33:22.992Z,51.78
2016-08-08T11:34:22.997Z,52.66
2016-08-08T11:35:22.992Z,52.17
2016-08-08T11:36:22.990Z,52.66
2016-08-08T11:37:22.989Z,52.75
2016-08-08T11:38:23.012Z,52.36
2016-08-08T11:39:23.016Z,51.52
2016-08-08T11:40:23.008Z,51.72
2016-08-08T11:41:23.017Z,51.42
2016-08-08T11:42:23.019Z,47.84
2016-08-08T11:43:23.030Z,49.1
2016-08-08T11:44:23.025Z,50.26
2016-08-08T11:45:23.018Z,50.74
2016-08-08T11:46:23.036Z,53.17
2016-08-08T11:47:23.039Z,53.87
2016-08-08T11:48:23.038Z,50.87
2016-08-08T11:49:23.037Z,50.57
2016-08-08T11:50:23.045Z,49.8
2016-08-08T11:51:23.056Z,49.99
2016-08-08T11:52:23.774Z,49.32
2016-08-08T11:53:23.054Z,47.28
2016-08-08T11:54:23.078Z,47.67
2016-08-08T11:55:23.075Z,47.38
2016-08-08T11:56:23.082Z,50.48
2016-08-08T11:57:23.085Z,47.77
2016-08-08T11:58:23.787Z,50.45
2016-08-08T11:59:23.074Z,49.1
2016-08-08T12:00:23.090Z,51.04
2016-08-08T12:01:23.088Z,53.85
2016-08-08T12:02:23.092Z,52.1
2016-08-08T12:03:23.101Z,51.32
2016-08-08T12:04:23.111Z,52.97
2016-08-08T12:05:23.113Z,52.29
2016-08-08T12:06:23.119Z,52.39
2016-08-08T12:07:23.114Z,49.87
2016-08-08T12:08:23.121Z,47.94
2016-08-08T12:09:23.124Z,48.13
2016-08-08T12:10:23.132Z,47.84
2016-08-08T12:11:23.127Z,49.19
2016-08-08T12:12:23.129Z,47.94
2016-08-08T12:13:23.171Z,48.83
2016-08-08T12:14:23.147Z,48.54
2016-08-08T12:15:23.152Z,49.97
2016-08-08T12:16:23.156Z,51.72
2016-08-08T12:17:23.160Z,48.9
2016-08-08T12:18:23.153Z,49.49
2016-08-08T12:19:23.159Z,48.69
2016-08-08T12:20:23.169Z,49.65
2016-08-08T12:21:23.183Z,49.75
2016-08-08T12:22:23.171Z,50.43
2016-08-08T12:23:23.186Z,49.27
2016-08-08T12:24:23.185Z,50.33
2016-08-08T12:25:23.191Z,51.4
2016-08-08T12:26:23.192Z,50.82
2016-08-08T12:27:23.190Z,50.24
2016-08-08T12:28:23.189Z,52.27
2016-08-08T12:29:23.226Z,51.88
2016-08-08T12:30:23.260Z,51.5
2016-08-08T12:31:23.214Z,53.63
2016-08-08T12:32:23.221Z,52.66
2016-08-08T12:33:23.235Z,52.85
2016-08-08T12:34:23.223Z,53.63
2016-08-08T12:35:23.238Z,52.46
2016-08-08T12:36:23.230Z,51.98
2016-08-08T12:37:23.237Z,52.46
2016-08-08T12:38:23.261Z,53.17
2016-08-08T12:39:23.247Z,53.85
2016-08-08T12:40:23.247Z,52.78
2016-08-08T12:41:23.247Z,48.81
2016-08-08T12:42:23.246Z,47.84
2016-08-08T12:43:23.245Z,48.49
2016-08-08T12:45:23.309Z,50.12
2016-08-08T12:46:23.268Z,50.31
2016-08-08T12:47:23.272Z,53.89
2016-08-08T12:48:23.281Z,54.17
2016-08-08T12:49:23.279Z,51.76
2016-08-08T12:50:23.298Z,52.63
2016-08-08T12:51:23.290Z,54.08
2016-08-08T12:52:23.306Z,53.79
2016-08-08T12:53:23.284Z,53.21
2016-08-08T12:54:23.293Z,53.69
2016-08-08T12:55:23.305Z,54.57
2016-08-08T12:56:23.305Z,53.69
2016-08-08T12:57:24.020Z,53.89
2016-08-08T12:58:23.315Z,54.27
2016-08-08T13:00:23.320Z,52.44
2016-08-08T13:01:23.327Z,52.14
2016-08-08T13:02:23.333Z,52.63
2016-08-08T13:03:23.330Z,50.52
2016-08-08T13:04:23.316Z,51.88
2016-08-08T13:05:23.323Z,51.2
2016-08-08T13:06:23.329Z,52.46
2016-08-08T13:07:23.369Z,52.46
2016-08-08T13:08:23.339Z,50.04
2016-08-08T13:09:23.330Z,50.72